createdAt,value
2022-10-09T00:02:12.043Z,100277.22
2022-10-09T00:05:03.188Z,100280.78
2022-10-09T00:07:30.018Z,100282.50
2022-10-09T00:09:58.967Z,100292.34
2022-10-09T00:12:28.812Z,100292.47
2022-10-09T00:14:58.785Z,100289.56
2022-10-09T00:17:25.648Z,100284.88
2022-10-09T00:19:58.422Z,100294.63
2022-10-09T00:22:31.358Z,100290.28
2022-10-09T00:25:04.254Z,100297.84
2022-10-09T00:27:31.150Z,100300.81
2022-10-09T00:30:22.434Z,100305.22
2022-10-09T00:32:49.599Z,100300.25
2022-10-09T00:35:18.588Z,100303.69
2022-10-09T00:37:45.475Z,100303.34
2022-10-09T00:40:13.366Z,100308.28
2022-10-09T00:42:50.711Z,100316.78
2022-10-09T00:45:20.335Z,100314.00
2022-10-09T00:47:49.532Z,100310.41
2022-10-09T00:50:35.004Z,100315.69
2022-10-09T00:53:12.795Z,100314.75
2022-10-09T00:55:42.538Z,100325.28
2022-10-09T00:58:09.774Z,100313.78
2022-10-09T01:01:01.906Z,100320.84
2022-10-09T01:03:28.634Z,100322.63
2022-10-09T01:06:05.309Z,100327.00
2022-10-09T01:08:33.324Z,100329.00
2022-10-09T01:11:13.891Z,100331.75
2022-10-09T01:14:04.797Z,100332.50
2022-10-09T01:16:45.059Z,100333.41
2022-10-09T01:19:31.318Z,100343.34
2022-10-09T01:21:58.132Z,100335.44
2022-10-09T01:24:37.226Z,100334.63
2022-10-09T01:27:03.949Z,100342.84
2022-10-09T01:29:51.099Z,100347.28
2022-10-09T01:32:21.382Z,100352.56
2022-10-09T01:34:49.428Z,100350.72
2022-10-09T01:37:18.971Z,100356.78
2022-10-09T01:39:46.864Z,100361.66
2022-10-09T01:42:16.830Z,100363.59
2022-10-09T01:44:44.852Z,100363.88
2022-10-09T01:47:16.399Z,100371.09
2022-10-09T01:49:50.450Z,100368.34
2022-10-09T01:52:26.366Z,100370.81
2022-10-09T01:55:01.240Z,100377.06
2022-10-09T01:57:31.012Z,100382.59
2022-10-09T01:59:59.792Z,100375.44
2022-10-09T02:02:34.413Z,100386.91
2022-10-09T02:05:04.462Z,100391.91
2022-10-09T02:07:37.747Z,100387.59
2022-10-09T02:10:06.267Z,100387.19
2022-10-09T02:12:37.652Z,100390.19
2022-10-09T02:15:04.947Z,100396.34
2022-10-09T02:17:35.128Z,100390.78
2022-10-09T02:20:06.249Z,100397.78
2022-10-09T02:22:33.720Z,100394.16
2022-10-09T02:25:02.910Z,100398.22
2022-10-09T02:27:30.964Z,100404.13
2022-10-09T02:29:59.982Z,100405.63
2022-10-09T02:32:28.532Z,100400.78
2022-10-09T02:34:55.387Z,100404.09
2022-10-09T02:37:22.207Z,100403.00
2022-10-09T02:39:50.502Z,100403.72
2022-10-09T02:42:23.456Z,100408.91
2022-10-09T02:45:05.512Z,100409.03
2022-10-09T02:47:32.326Z,100414.34
2022-10-09T02:49:59.177Z,100413.69
2022-10-09T02:52:40.023Z,100421.28
2022-10-09T02:55:09.028Z,100419.81
2022-10-09T02:57:36.875Z,100419.03
2022-10-09T03:00:04.794Z,100429.84
2022-10-09T03:02:31.797Z,100423.78
2022-10-09T03:04:59.691Z,100434.16
2022-10-09T03:07:29.613Z,100435.03
2022-10-09T03:10:02.573Z,100429.81
2022-10-09T03:12:32.447Z,100433.88
2022-10-09T03:15:05.797Z,100438.66
2022-10-09T03:17:39.047Z,100432.34
2022-10-09T03:20:18.819Z,100437.53
2022-10-09T03:22:53.899Z,100445.75
2022-10-09T03:25:21.101Z,100445.78
2022-10-09T03:28:00.891Z,100443.28
2022-10-09T03:30:27.696Z,100439.66
2022-10-09T03:32:59.617Z,100447.91
2022-10-09T03:35:32.468Z,100450.78
2022-10-09T03:38:09.387Z,100451.75
2022-10-09T03:40:36.314Z,100463.13
2022-10-09T03:43:04.145Z,100458.06
2022-10-09T03:45:31.003Z,100459.75
2022-10-09T03:47:57.847Z,100469.25
2022-10-09T03:50:28.705Z,100461.81
2022-10-09T03:52:59.641Z,100465.66
2022-10-09T03:55:30.455Z,100468.53
2022-10-09T03:58:05.706Z,100473.31
2022-10-09T04:00:46.889Z,100471.94
2022-10-09T04:03:22.436Z,100475.94
2022-10-09T04:05:52.511Z,100481.44
2022-10-09T04:08:19.378Z,100482.53
2022-10-09T04:11:05.959Z,100478.25
2022-10-09T04:13:46.028Z,100487.19
2022-10-09T04:16:14.962Z,100484.47
2022-10-09T04:18:57.024Z,100485.44
2022-10-09T04:21:25.743Z,100482.38
2022-10-09T04:24:00.348Z,100482.69
2022-10-09T04:26:33.188Z,100483.41
2022-10-09T04:29:01.978Z,100486.28
2022-10-09T04:31:30.826Z,100490.81
2022-10-09T04:34:27.416Z,100495.03
2022-10-09T04:37:14.321Z,100489.78
2022-10-09T04:39:48.340Z,100500.22
2022-10-09T04:42:18.224Z,100507.31
2022-10-09T04:44:48.053Z,100505.63
2022-10-09T04:47:21.957Z,100505.66
2022-10-09T04:49:51.095Z,100515.41
2022-10-09T04:52:18.982Z,100507.53
2022-10-09T04:54:56.036Z,100516.25
2022-10-09T04:57:25.014Z,100522.06
2022-10-09T05:00:01.129Z,100529.28
2022-10-09T05:02:28.006Z,100529.03
2022-10-09T05:05:19.738Z,100528.59
2022-10-09T05:07:46.629Z,100535.69
2022-10-09T05:10:23.332Z,100533.06
2022-10-09T05:12:50.574Z,100536.22
2022-10-09T05:15:43.066Z,100541.47
2022-10-09T05:18:10.007Z,100555.47
2022-10-09T05:20:41.336Z,100555.38
2022-10-09T05:23:13.251Z,100543.97
2022-10-09T05:25:40.025Z,100557.19
2022-10-09T05:28:22.419Z,100550.19
2022-10-09T05:30:49.558Z,100556.97
2022-10-09T05:33:29.589Z,100551.72
2022-10-09T05:35:59.679Z,100551.69
2022-10-09T05:38:37.839Z,100555.41
2022-10-09T05:41:08.585Z,100564.09
2022-10-09T05:43:36.764Z,100570.91
2022-10-09T05:46:07.885Z,100565.63
2022-10-09T05:48:35.061Z,100573.56
2022-10-09T05:51:10.702Z,100567.13
2022-10-09T05:53:44.755Z,100577.81
2022-10-09T05:56:11.525Z,100574.31
2022-10-09T05:58:38.504Z,100581.06
2022-10-09T06:01:06.357Z,100585.34
2022-10-09T06:03:34.298Z,100585.28
2022-10-09T06:06:02.296Z,100584.28
2022-10-09T06:08:31.953Z,100589.38
2022-10-09T06:10:58.864Z,100594.59
2022-10-09T06:13:34.830Z,100594.53
2022-10-09T06:16:01.743Z,100608.34
2022-10-09T06:18:28.505Z,100604.59
2022-10-09T06:21:02.317Z,100604.84
2022-10-09T06:23:31.970Z,100613.25
2022-10-09T06:26:07.238Z,100608.91
2022-10-09T06:28:35.530Z,100625.50
2022-10-09T06:31:24.306Z,100615.53
2022-10-09T06:33:52.866Z,100619.00
2022-10-09T06:36:21.060Z,100619.59
2022-10-09T06:38:49.285Z,100611.75
2022-10-09T06:41:18.705Z,100616.97
2022-10-09T06:43:50.783Z,100613.22
2022-10-09T06:46:18.369Z,100619.56
2022-10-09T06:48:45.236Z,100631.56
2022-10-09T06:51:13.667Z,100627.56
2022-10-09T06:53:43.027Z,100631.59
2022-10-09T06:56:12.871Z,100633.72
2022-10-09T06:58:42.128Z,100636.94
2022-10-09T07:01:10.984Z,100635.00
2022-10-09T07:03:40.736Z,100639.25
2022-10-09T07:06:07.502Z,100643.56
2022-10-09T07:08:34.706Z,100648.34
2022-10-09T07:11:13.554Z,100653.47
2022-10-09T07:13:41.470Z,100649.09
2022-10-09T07:16:08.773Z,100659.31
2022-10-09T07:18:36.070Z,100661.84
2022-10-09T07:21:05.328Z,100654.53
2022-10-09T07:23:32.584Z,100669.38
2022-10-09T07:26:00.042Z,100656.09
2022-10-09T07:28:29.398Z,100663.97
2022-10-09T07:30:56.837Z,100678.06
2022-10-09T07:33:23.735Z,100685.75
2022-10-09T07:35:55.516Z,100670.56
2022-10-09T07:38:23.026Z,100672.94
2022-10-09T07:40:51.748Z,100678.19
2022-10-09T07:43:18.956Z,100683.88
2022-10-09T07:45:47.143Z,100681.03
2022-10-09T07:48:15.089Z,100678.56
2022-10-09T07:50:41.994Z,100678.19
2022-10-09T07:53:10.194Z,100687.59
2022-10-09T07:55:44.865Z,100690.34
2022-10-09T07:58:13.315Z,100680.28
2022-10-09T08:00:41.087Z,100686.91
2022-10-09T08:03:08.538Z,100688.53
2022-10-09T08:05:39.642Z,100686.13
2022-10-09T08:08:06.553Z,100688.56
2022-10-09T08:10:33.626Z,100687.78
2022-10-09T08:13:01.592Z,100690.53
2022-10-09T08:15:29.526Z,100688.16
2022-10-09T08:17:56.400Z,100692.47
2022-10-09T08:23:16.554Z,100694.38
2022-10-09T08:25:51.756Z,100688.81
2022-10-09T08:28:22.203Z,100684.97
2022-10-09T08:30:50.485Z,100689.19
2022-10-09T08:33:22.141Z,100690.50
2022-10-09T08:35:55.324Z,100682.28
2022-10-09T08:38:46.017Z,100694.38
2022-10-09T08:41:21.834Z,100690.47
2022-10-09T08:44:00.667Z,100688.09
2022-10-09T08:46:59.838Z,100705.34
2022-10-09T08:49:33.175Z,100690.94
2022-10-09T08:52:21.983Z,100688.25
2022-10-09T08:54:50.262Z,100693.06
2022-10-09T08:57:18.327Z,100700.81
2022-10-09T08:59:49.477Z,100705.91
2022-10-09T09:02:59.799Z,100689.72
2022-10-09T09:05:51.102Z,100692.25
2022-10-09T09:09:03.037Z,100695.56
2022-10-09T09:11:53.917Z,100704.03
2022-10-09T09:14:45.737Z,100692.78
2022-10-09T09:17:30.348Z,100708.81
2022-10-09T09:20:05.663Z,100708.56
2022-10-09T09:22:34.603Z,100708.84
2022-10-09T09:25:28.771Z,100698.03
2022-10-09T09:28:12.509Z,100717.47
2022-10-09T09:30:55.689Z,100719.34
2022-10-09T09:33:44.872Z,100721.28
2022-10-09T09:36:22.900Z,100702.06
2022-10-09T09:39:36.271Z,100707.47
2022-10-09T09:41:46.164Z,100709.78
2022-10-09T09:44:16.727Z,100704.25
2022-10-09T09:46:59.986Z,100712.06
2022-10-09T09:49:33.936Z,100706.84
2022-10-09T09:52:26.478Z,100711.38
2022-10-09T09:54:56.191Z,100700.31
2022-10-09T09:57:32.262Z,100702.97
2022-10-09T10:00:32.233Z,100699.06
2022-10-09T10:03:21.621Z,100700.47
2022-10-09T10:05:50.090Z,100703.63
2022-10-09T10:08:27.115Z,100706.22
2022-10-09T10:11:00.245Z,100704.13
2022-10-09T10:13:35.429Z,100711.44
2022-10-09T10:16:04.536Z,100704.91
2022-10-09T10:18:43.578Z,100702.59
2022-10-09T10:21:17.042Z,100702.19
2022-10-09T10:23:58.801Z,100699.03
2022-10-09T10:26:36.989Z,100700.88
2022-10-09T10:29:21.177Z,100701.84
2022-10-09T10:31:49.026Z,100695.59
2022-10-09T10:34:58.255Z,100704.44
2022-10-09T10:37:46.004Z,100694.94
2022-10-09T10:40:23.348Z,100686.38
2022-10-09T10:43:08.188Z,100690.25
2022-10-09T10:46:09.016Z,100690.91
2022-10-09T10:48:47.467Z,100695.59
2022-10-09T10:51:44.564Z,100699.22
2022-10-09T10:54:23.354Z,100694.09
2022-10-09T10:57:29.271Z,100684.19
2022-10-09T11:00:07.948Z,100685.03
2022-10-09T11:02:56.813Z,100693.28
2022-10-09T11:05:59.158Z,100688.13
2022-10-09T11:08:42.056Z,100682.13
2022-10-09T11:11:24.010Z,100688.94
2022-10-09T11:14:20.059Z,100680.81
2022-10-09T11:17:19.424Z,100682.38
2022-10-09T11:20:01.334Z,100687.69
2022-10-09T11:22:31.491Z,100686.28
2022-10-09T11:25:16.987Z,100679.03
2022-10-09T11:27:56.824Z,100681.44
2022-10-09T11:30:26.859Z,100674.03
2022-10-09T11:33:03.700Z,100672.06
2022-10-09T11:36:03.949Z,100671.84
2022-10-09T11:38:42.856Z,100663.44
2022-10-09T11:41:10.377Z,100661.09
2022-10-09T11:44:14.931Z,100656.97
2022-10-09T11:47:01.560Z,100654.09
2022-10-09T11:49:46.802Z,100658.31
2022-10-09T11:53:02.518Z,100654.00
2022-10-09T11:55:31.677Z,100646.25
2022-10-09T11:58:31.247Z,100639.97
2022-10-09T12:01:12.820Z,100632.16
2022-10-09T12:03:41.246Z,100636.59
2022-10-09T12:06:15.182Z,100635.31
2022-10-09T12:08:56.194Z,100631.13
2022-10-09T12:11:30.853Z,100636.81
2022-10-09T12:14:04.637Z,100629.53
2022-10-09T12:16:44.829Z,100639.59
2022-10-09T12:19:25.154Z,100639.38
2022-10-09T12:22:30.946Z,100628.41
2022-10-09T12:25:02.911Z,100628.88
2022-10-09T12:27:40.657Z,100630.72
2022-10-09T12:30:11.933Z,100625.59
2022-10-09T12:33:27.957Z,100619.56
2022-10-09T12:36:24.782Z,100617.94
2022-10-09T12:38:53.183Z,100622.69
2022-10-09T12:41:23.417Z,100618.16
2022-10-09T12:43:53.155Z,100614.72
2022-10-09T12:46:39.311Z,100617.41
2022-10-09T12:49:21.273Z,100615.22
2022-10-09T12:51:56.223Z,100604.63
2022-10-09T12:54:32.012Z,100613.72
2022-10-09T12:57:01.817Z,100603.13
2022-10-09T12:59:30.358Z,100607.84
2022-10-09T13:02:00.709Z,100596.28
2022-10-09T13:04:59.354Z,100599.81
2022-10-09T13:07:29.792Z,100596.34
2022-10-09T13:10:04.497Z,100594.41
2022-10-09T13:12:38.366Z,100591.59
2022-10-09T13:15:27.777Z,100589.78
2022-10-09T13:18:13.436Z,100602.31
2022-10-09T13:20:42.512Z,100599.66
2022-10-09T13:23:28.072Z,100594.47
2022-10-09T13:26:05.228Z,100595.06
2022-10-09T13:28:34.428Z,100596.03
2022-10-09T13:31:20.145Z,100590.50
2022-10-09T13:33:54.346Z,100579.63
2022-10-09T13:36:30.192Z,100576.16
2022-10-09T13:39:06.344Z,100589.22
2022-10-09T13:41:34.206Z,100578.31
2022-10-09T13:44:02.257Z,100579.28
2022-10-09T13:46:38.816Z,100574.50
2022-10-09T13:49:08.992Z,100578.56
2022-10-09T13:51:38.003Z,100567.94
2022-10-09T13:54:05.095Z,100567.38
2022-10-09T13:56:32.653Z,100556.41
2022-10-09T13:59:14.616Z,100563.47
2022-10-09T14:01:41.879Z,100555.13
2022-10-09T14:04:28.082Z,100563.88
2022-10-09T14:07:01.143Z,100559.13
2022-10-09T14:09:29.244Z,100557.28
2022-10-09T14:12:02.496Z,100551.41
2022-10-09T14:14:31.143Z,100556.31
2022-10-09T14:17:02.458Z,100547.25
2022-10-09T14:19:30.306Z,100550.66
2022-10-09T14:21:58.219Z,100547.91
2022-10-09T14:24:27.162Z,100545.22
2022-10-09T14:26:55.430Z,100543.47
2022-10-09T14:29:22.700Z,100548.19
2022-10-09T14:31:52.155Z,100538.91
2022-10-09T14:34:20.457Z,100543.59
2022-10-09T14:36:49.401Z,100535.53
2022-10-09T14:39:22.822Z,100532.69
2022-10-09T14:42:02.325Z,100529.50
2022-10-09T14:44:31.618Z,100522.78
2022-10-09T14:47:00.913Z,100524.31
2022-10-09T14:49:30.500Z,100520.44
2022-10-09T14:51:57.518Z,100528.44
2022-10-09T14:54:24.661Z,100526.44
2022-10-09T14:56:53.944Z,100526.88
2022-10-09T14:59:22.485Z,100520.47
2022-10-09T15:01:50.137Z,100518.50
2022-10-09T15:04:17.431Z,100522.44
2022-10-09T15:06:50.912Z,100520.63
2022-10-09T15:09:22.056Z,100525.97
2022-10-09T15:11:51.567Z,100522.91
2022-10-09T15:14:21.946Z,100513.31
2022-10-09T15:16:50.112Z,100509.78
2022-10-09T15:19:24.445Z,100505.50
2022-10-09T15:21:51.596Z,100500.13
2022-10-09T15:24:18.798Z,100500.72
2022-10-09T15:26:50.137Z,100497.56
2022-10-09T15:29:20.569Z,100501.25
2022-10-09T15:31:50.976Z,100501.53
2022-10-09T15:34:21.322Z,100502.75
2022-10-09T15:36:51.401Z,100496.41
2022-10-09T15:39:19.982Z,100493.25
2022-10-09T15:41:48.630Z,100497.94
2022-10-09T15:44:26.816Z,100494.59
2022-10-09T15:46:54.485Z,100496.94
2022-10-09T15:49:24.214Z,100501.56
2022-10-09T15:51:58.120Z,100508.94
2022-10-09T15:54:25.359Z,100507.03
2022-10-09T15:57:01.522Z,100504.44
2022-10-09T15:59:31.923Z,100506.94
2022-10-09T16:02:04.190Z,100505.03
2022-10-09T16:04:40.091Z,100518.34
2022-10-09T16:07:14.603Z,100512.56
2022-10-09T16:09:45.068Z,100506.91
2022-10-09T16:12:13.283Z,100501.31
2022-10-09T16:15:08.293Z,100507.53
2022-10-09T16:17:42.478Z,100512.94
2022-10-09T16:20:18.680Z,100514.97
2022-10-09T16:22:45.723Z,100526.34
2022-10-09T16:25:20.034Z,100524.69
2022-10-09T16:27:51.644Z,100523.53
2022-10-09T16:30:21.153Z,100524.16
2022-10-09T16:32:50.865Z,100524.00
2022-10-09T16:35:29.523Z,100523.22
2022-10-09T16:37:59.979Z,100527.06
2022-10-09T16:41:01.870Z,100536.75
2022-10-09T16:43:32.793Z,100531.53
2022-10-09T16:46:18.474Z,100531.41
2022-10-09T16:48:46.282Z,100526.41
2022-10-09T16:51:21.401Z,100535.28
2022-10-09T16:53:57.733Z,100530.78
2022-10-09T16:56:33.410Z,100525.88
2022-10-09T16:59:04.167Z,100518.03
2022-10-09T17:01:33.558Z,100525.88
2022-10-09T17:04:10.198Z,100527.69
2022-10-09T17:06:37.924Z,100533.69
2022-10-09T17:09:13.712Z,100535.38
2022-10-09T17:11:50.309Z,100543.53
2022-10-09T17:14:19.553Z,100540.53
2022-10-09T17:16:46.623Z,100538.81
2022-10-09T17:19:16.393Z,100542.56
2022-10-09T17:21:43.927Z,100540.94
2022-10-09T17:24:15.339Z,100534.81
2022-10-09T17:26:43.975Z,100536.59
2022-10-09T17:29:14.959Z,100534.19
2022-10-09T17:31:42.453Z,100546.72
2022-10-09T17:34:17.380Z,100538.25
2022-10-09T17:36:45.612Z,100540.34
2022-10-09T17:39:18.194Z,100539.38
2022-10-09T17:41:49.785Z,100547.28
2022-10-09T17:44:18.550Z,100549.09
2022-10-09T17:46:46.773Z,100551.59
2022-10-09T17:49:17.118Z,100542.13
2022-10-09T17:51:47.159Z,100547.28
2022-10-09T17:54:17.700Z,100551.81
2022-10-09T17:56:46.048Z,100550.22
2022-10-09T17:59:16.781Z,100549.44
2022-10-09T18:01:45.139Z,100559.34
2022-10-09T18:04:22.922Z,100551.63
2022-10-09T18:06:52.218Z,100559.56
2022-10-09T18:09:20.460Z,100556.97
2022-10-09T18:11:55.817Z,100557.28
2022-10-09T18:14:27.160Z,100551.44
2022-10-09T18:16:55.252Z,100549.94
2022-10-09T18:19:23.820Z,100546.53
2022-10-09T18:22:08.443Z,100544.84
2022-10-09T18:24:39.136Z,100546.59
2022-10-09T18:27:07.469Z,100555.47
2022-10-09T18:29:35.247Z,100556.53
2022-10-09T18:32:02.376Z,100550.13
2022-10-09T18:34:36.875Z,100554.03
2022-10-09T18:37:06.263Z,100557.34
2022-10-09T18:39:33.518Z,100544.16
2022-10-09T18:42:04.734Z,100550.38
2022-10-09T18:44:35.781Z,100556.94
2022-10-09T18:47:05.738Z,100554.50
2022-10-09T18:49:44.670Z,100557.28
2022-10-09T18:52:13.251Z,100558.19
2022-10-09T18:54:50.299Z,100552.44
2022-10-09T18:57:17.894Z,100555.47
2022-10-09T18:59:48.613Z,100559.22
2022-10-09T19:02:17.521Z,100553.97
2022-10-09T19:04:44.815Z,100556.91
2022-10-09T19:07:12.382Z,100557.66
2022-10-09T19:09:41.629Z,100548.41
2022-10-09T19:12:10.025Z,100554.09
2022-10-09T19:14:40.580Z,100550.75
2022-10-09T19:17:08.816Z,100554.41
2022-10-09T19:19:36.715Z,100552.22
2022-10-09T19:22:04.391Z,100546.94
2022-10-09T19:24:34.172Z,100555.97
2022-10-09T19:27:02.942Z,100561.13
2022-10-09T19:29:30.037Z,100556.84
2022-10-09T19:31:58.154Z,100560.50
2022-10-09T19:34:31.256Z,100567.41
2022-10-09T19:37:06.185Z,100568.66
2022-10-09T19:39:33.414Z,100565.84
2022-10-09T19:42:00.427Z,100565.94
2022-10-09T19:44:28.115Z,100570.91
2022-10-09T19:47:05.549Z,100562.06
2022-10-09T19:49:33.971Z,100561.16
2022-10-09T19:52:03.915Z,100558.44
2022-10-09T19:54:33.708Z,100548.53
2022-10-09T19:57:04.035Z,100551.94
2022-10-09T19:59:31.536Z,100544.84
2022-10-09T20:02:04.688Z,100550.94
2022-10-09T20:04:33.459Z,100553.56
2022-10-09T20:07:00.766Z,100557.09
2022-10-09T20:09:28.784Z,100559.72
2022-10-09T20:11:55.842Z,100565.78
2022-10-09T20:14:23.988Z,100562.28
2022-10-09T20:17:00.994Z,100564.19
2022-10-09T20:19:49.744Z,100566.22
2022-10-09T20:22:19.643Z,100558.84
2022-10-09T20:24:46.657Z,100570.09
2022-10-09T20:27:13.967Z,100570.03
2022-10-09T20:29:41.115Z,100559.84
2022-10-09T20:32:12.426Z,100558.00
2022-10-09T20:34:39.388Z,100557.91
2022-10-09T20:37:06.522Z,100549.97
2022-10-09T20:39:33.603Z,100547.38
2022-10-09T20:42:01.602Z,100543.06
2022-10-09T20:44:28.707Z,100544.75
2022-10-09T20:46:57.074Z,100542.13
2022-10-09T20:49:24.114Z,100544.69
2022-10-09T20:51:58.903Z,100545.69
2022-10-09T20:54:30.683Z,100548.19
2022-10-09T20:56:57.787Z,100545.75
2022-10-09T20:59:25.937Z,100542.69
2022-10-09T21:01:53.259Z,100544.34
2022-10-09T21:04:20.317Z,100547.69
2022-10-09T21:06:49.456Z,100549.34
2022-10-09T21:09:16.587Z,100541.63
2022-10-09T21:11:46.479Z,100540.78
2022-10-09T21:14:20.640Z,100542.53
2022-10-09T21:16:53.486Z,100550.41
2022-10-09T21:19:20.472Z,100541.75
2022-10-09T21:21:55.566Z,100535.69
2022-10-09T21:24:22.682Z,100538.34
2022-10-09T21:26:49.781Z,100533.09
2022-10-09T21:29:16.828Z,100533.06
2022-10-09T21:31:44.967Z,100530.44
2022-10-09T21:34:12.014Z,100538.34
2022-10-09T21:37:15.968Z,100523.44
2022-10-09T21:39:35.100Z,100520.03
2022-10-09T21:42:15.146Z,100514.81
2022-10-09T21:44:55.353Z,100523.59
2022-10-09T21:47:23.802Z,100521.00
2022-10-09T21:49:51.950Z,100516.59
2022-10-09T21:52:30.279Z,100510.50
2022-10-09T21:54:59.138Z,100518.38
2022-10-09T21:57:32.282Z,100515.81
2022-10-09T22:00:01.376Z,100521.28
2022-10-09T22:02:30.390Z,100520.66
2022-10-09T22:04:57.640Z,100514.69
2022-10-09T22:07:30.845Z,100511.97
2022-10-09T22:09:57.832Z,100512.72
2022-10-09T22:12:26.963Z,100509.09
2022-10-09T22:14:54.036Z,100508.25
2022-10-09T22:17:23.312Z,100509.16
2022-10-09T22:19:50.959Z,100514.56
2022-10-09T22:22:18.132Z,100508.47
2022-10-09T22:24:46.171Z,100508.53
2022-10-09T22:27:13.194Z,100507.66
2022-10-09T22:29:52.563Z,100500.66
2022-10-09T22:32:20.694Z,100502.38
2022-10-09T22:34:52.285Z,100504.13
2022-10-09T22:37:19.696Z,100498.00
2022-10-09T22:39:47.789Z,100500.59
2022-10-09T22:42:17.188Z,100501.47
2022-10-09T22:44:44.107Z,100498.91
2022-10-09T22:47:18.009Z,100500.72
2022-10-09T22:49:46.058Z,100502.41
2022-10-09T22:52:13.150Z,100500.75
2022-10-09T22:54:41.178Z,100500.78
2022-10-09T22:57:08.218Z,100504.19
2022-10-09T22:59:35.214Z,100501.59
2022-10-09T23:02:02.353Z,100495.56
2022-10-09T23:04:30.369Z,100498.97
2022-10-09T23:07:00.889Z,100499.84
2022-10-09T23:09:32.096Z,100490.19
2022-10-09T23:12:00.647Z,100489.31
2022-10-09T23:14:40.984Z,100488.47
2022-10-09T23:17:15.974Z,100489.41
2022-10-09T23:19:53.228Z,100485.91
2022-10-09T23:22:23.415Z,100487.66
2022-10-09T23:24:51.400Z,100482.44
2022-10-09T23:27:33.457Z,100489.38
2022-10-09T23:30:02.550Z,100478.91
2022-10-09T23:32:42.725Z,100475.50
2022-10-09T23:35:10.860Z,100474.63
2022-10-09T23:37:38.950Z,100469.41
2022-10-09T23:40:15.237Z,100471.16
2022-10-09T23:43:03.713Z,100472.88
2022-10-09T23:45:31.750Z,100472.91
2022-10-09T23:48:04.663Z,100465.00
2022-10-09T23:50:33.657Z,100457.09
2022-10-09T23:53:04.599Z,100458.81
2022-10-09T23:55:37.812Z,100461.44
2022-10-09T23:58:21.852Z,100458.84
